sensor_id;sensor_type;location;lat;lon;timestamp;P1;durP1;ratioP1;P2;durP2;ratioP2
53271;SDS011;39160;48.580;7.756;2023-04-15T00:01:37;7.50;;;2.28;;
53271;SDS011;39160;48.580;7.756;2023-04-15T00:06:28;7.22;;;1.70;;
53271;SDS011;39160;48.580;7.756;2023-04-15T00:11:33;3.58;;;2.17;;
53271;SDS011;39160;48.580;7.756;2023-04-15T00:16:23;8.02;;;2.38;;
53271;SDS011;39160;48.580;7.756;2023-04-15T00:21:14;3.80;;;2.22;;
53271;SDS011;39160;48.580;7.756;2023-04-15T00:26:05;5.38;;;2.35;;
53271;SDS011;39160;48.580;7.756;2023-04-15T00:30:56;3.50;;;2.40;;
53271;SDS011;39160;48.580;7.756;2023-04-15T00:35:47;4.32;;;2.50;;
53271;SDS011;39160;48.580;7.756;2023-04-15T00:40:38;3.42;;;1.95;;
53271;SDS011;39160;48.580;7.756;2023-04-15T00:45:28;3.60;;;1.70;;
53271;SDS011;39160;48.580;7.756;2023-04-15T00:50:19;4.65;;;1.80;;
53271;SDS011;39160;48.580;7.756;2023-04-15T00:55:10;7.13;;;2.05;;
53271;SDS011;39160;48.580;7.756;2023-04-15T01:00:01;5.20;;;2.17;;
53271;SDS011;39160;48.580;7.756;2023-04-15T01:04:55;4.07;;;2.20;;
53271;SDS011;39160;48.580;7.756;2023-04-15T01:09:45;3.67;;;1.98;;
53271;SDS011;39160;48.580;7.756;2023-04-15T01:14:37;7.70;;;2.22;;
53271;SDS011;39160;48.580;7.756;2023-04-15T01:19:27;7.30;;;2.30;;
53271;SDS011;39160;48.580;7.756;2023-04-15T01:24:18;3.75;;;2.35;;
53271;SDS011;39160;48.580;7.756;2023-04-15T01:29:09;3.38;;;1.75;;
53271;SDS011;39160;48.580;7.756;2023-04-15T01:33:59;4.43;;;2.17;;
53271;SDS011;39160;48.580;7.756;2023-04-15T01:38:50;2.75;;;2.22;;
53271;SDS011;39160;48.580;7.756;2023-04-15T01:43:41;2.80;;;1.88;;
53271;SDS011;39160;48.580;7.756;2023-04-15T01:48:32;4.70;;;2.97;;
53271;SDS011;39160;48.580;7.756;2023-04-15T01:53:23;3.03;;;1.80;;
53271;SDS011;39160;48.580;7.756;2023-04-15T01:58:14;3.90;;;2.40;;
53271;SDS011;39160;48.580;7.756;2023-04-15T02:03:05;6.22;;;2.40;;
53271;SDS011;39160;48.580;7.756;2023-04-15T02:07:56;4.15;;;2.10;;
53271;SDS011;39160;48.580;7.756;2023-04-15T02:12:46;5.38;;;2.17;;
53271;SDS011;39160;48.580;7.756;2023-04-15T02:17:37;5.63;;;2.55;;
53271;SDS011;39160;48.580;7.756;2023-04-15T02:22:28;7.32;;;2.63;;
53271;SDS011;39160;48.580;7.756;2023-04-15T02:27:19;5.75;;;3.63;;
53271;SDS011;39160;48.580;7.756;2023-04-15T02:32:11;6.72;;;3.22;;
53271;SDS011;39160;48.580;7.756;2023-04-15T02:37:02;7.00;;;2.78;;
53271;SDS011;39160;48.580;7.756;2023-04-15T02:41:53;6.00;;;2.42;;
53271;SDS011;39160;48.580;7.756;2023-04-15T02:46:44;5.30;;;2.60;;
53271;SDS011;39160;48.580;7.756;2023-04-15T02:51:41;4.53;;;2.35;;
53271;SDS011;39160;48.580;7.756;2023-04-15T02:56:31;6.65;;;2.10;;
53271;SDS011;39160;48.580;7.756;2023-04-15T03:01:22;4.88;;;2.75;;
53271;SDS011;39160;48.580;7.756;2023-04-15T03:06:13;4.10;;;2.78;;
53271;SDS011;39160;48.580;7.756;2023-04-15T03:11:03;7.22;;;3.28;;
53271;SDS011;39160;48.580;7.756;2023-04-15T03:15:54;5.63;;;2.65;;
53271;SDS011;39160;48.580;7.756;2023-04-15T03:20:45;4.97;;;2.47;;
53271;SDS011;39160;48.580;7.756;2023-04-15T03:25:36;4.40;;;2.65;;
53271;SDS011;39160;48.580;7.756;2023-04-15T03:30:26;6.63;;;2.65;;
53271;SDS011;39160;48.580;7.756;2023-04-15T03:35:17;6.53;;;3.55;;
53271;SDS011;39160;48.580;7.756;2023-04-15T03:40:08;6.55;;;2.95;;
53271;SDS011;39160;48.580;7.756;2023-04-15T03:44:59;5.60;;;3.22;;
53271;SDS011;39160;48.580;7.756;2023-04-15T03:49:50;4.47;;;2.72;;
53271;SDS011;39160;48.580;7.756;2023-04-15T03:54:40;5.22;;;2.63;;
53271;SDS011;39160;48.580;7.756;2023-04-15T03:59:31;5.65;;;2.55;;
53271;SDS011;39160;48.580;7.756;2023-04-15T04:04:21;3.95;;;2.97;;
53271;SDS011;39160;48.580;7.756;2023-04-15T04:09:12;4.85;;;2.83;;
53271;SDS011;39160;48.580;7.756;2023-04-15T04:14:03;6.47;;;2.10;;
53271;SDS011;39160;48.580;7.756;2023-04-15T04:18:54;6.68;;;3.53;;
53271;SDS011;39160;48.580;7.756;2023-04-15T04:23:44;6.40;;;2.70;;
53271;SDS011;39160;48.580;7.756;2023-04-15T04:28:35;5.75;;;2.22;;
53271;SDS011;39160;48.580;7.756;2023-04-15T04:33:26;5.82;;;2.80;;
53271;SDS011;39160;48.580;7.756;2023-04-15T04:38:16;5.32;;;2.63;;
53271;SDS011;39160;48.580;7.756;2023-04-15T04:43:07;3.83;;;2.47;;
53271;SDS011;39160;48.580;7.756;2023-04-15T04:47:58;4.20;;;2.00;;
53271;SDS011;39160;48.580;7.756;2023-04-15T04:52:49;6.50;;;3.75;;
53271;SDS011;39160;48.580;7.756;2023-04-15T04:57:40;6.35;;;3.05;;
53271;SDS011;39160;48.580;7.756;2023-04-15T05:02:31;3.22;;;2.38;;
53271;SDS011;39160;48.580;7.756;2023-04-15T05:07:22;7.38;;;3.20;;
53271;SDS011;39160;48.580;7.756;2023-04-15T05:12:12;7.78;;;3.20;;
53271;SDS011;39160;48.580;7.756;2023-04-15T05:17:04;5.35;;;3.63;;
53271;SDS011;39160;48.580;7.756;2023-04-15T05:21:54;6.38;;;2.88;;
53271;SDS011;39160;48.580;7.756;2023-04-15T05:26:45;6.90;;;3.10;;
53271;SDS011;39160;48.580;7.756;2023-04-15T05:31:36;3.15;;;2.10;;
53271;SDS011;39160;48.580;7.756;2023-04-15T05:36:26;4.68;;;2.17;;
53271;SDS011;39160;48.580;7.756;2023-04-15T05:41:17;2.80;;;1.65;;
53271;SDS011;39160;48.580;7.756;2023-04-15T05:46:08;3.20;;;1.70;;
53271;SDS011;39160;48.580;7.756;2023-04-15T05:50:59;3.85;;;1.98;;
53271;SDS011;39160;48.580;7.756;2023-04-15T05:55:50;4.78;;;2.35;;
53271;SDS011;39160;48.580;7.756;2023-04-15T06:00:40;7.07;;;2.33;;
53271;SDS011;39160;48.580;7.756;2023-04-15T06:05:31;3.42;;;2.42;;
53271;SDS011;39160;48.580;7.756;2023-04-15T06:10:22;9.27;;;2.38;;
53271;SDS011;39160;48.580;7.756;2023-04-15T06:15:13;2.72;;;1.55;;
53271;SDS011;39160;48.580;7.756;2023-04-15T06:20:03;5.97;;;1.98;;
53271;SDS011;39160;48.580;7.756;2023-04-15T06:24:54;5.47;;;2.45;;
53271;SDS011;39160;48.580;7.756;2023-04-15T06:29:45;2.95;;;1.92;;
53271;SDS011;39160;48.580;7.756;2023-04-15T06:34:36;9.57;;;2.97;;
53271;SDS011;39160;48.580;7.756;2023-04-15T06:39:26;3.80;;;2.70;;
53271;SDS011;39160;48.580;7.756;2023-04-15T06:44:17;7.13;;;3.83;;
53271;SDS011;39160;48.580;7.756;2023-04-15T06:49:08;6.25;;;3.08;;
53271;SDS011;39160;48.580;7.756;2023-04-15T06:53:58;8.63;;;3.72;;
53271;SDS011;39160;48.580;7.756;2023-04-15T06:58:49;5.63;;;2.80;;
53271;SDS011;39160;48.580;7.756;2023-04-15T07:03:40;7.93;;;3.15;;
53271;SDS011;39160;48.580;7.756;2023-04-15T07:08:31;3.78;;;2.70;;
53271;SDS011;39160;48.580;7.756;2023-04-15T07:13:22;6.57;;;3.28;;
53271;SDS011;39160;48.580;7.756;2023-04-15T07:18:13;5.57;;;2.80;;
53271;SDS011;39160;48.580;7.756;2023-04-15T07:23:03;6.47;;;3.35;;
53271;SDS011;39160;48.580;7.756;2023-04-15T07:27:54;4.90;;;2.78;;
53271;SDS011;39160;48.580;7.756;2023-04-15T07:32:45;6.20;;;2.72;;
53271;SDS011;39160;48.580;7.756;2023-04-15T07:37:36;7.82;;;2.47;;
53271;SDS011;39160;48.580;7.756;2023-04-15T07:42:26;3.33;;;2.30;;
53271;SDS011;39160;48.580;7.756;2023-04-15T07:47:18;3.65;;;2.20;;
53271;SDS011;39160;48.580;7.756;2023-04-15T07:52:08;3.80;;;1.85;;
53271;SDS011;39160;48.580;7.756;2023-04-15T07:57:00;3.00;;;1.63;;
53271;SDS011;39160;48.580;7.756;2023-04-15T08:01:50;3.20;;;1.95;;
53271;SDS011;39160;48.580;7.756;2023-04-15T08:06:41;8.90;;;2.13;;
53271;SDS011;39160;48.580;7.756;2023-04-15T08:11:31;3.05;;;1.73;;
53271;SDS011;39160;48.580;7.756;2023-04-15T08:16:23;2.10;;;1.33;;
53271;SDS011;39160;48.580;7.756;2023-04-15T08:21:15;2.38;;;1.52;;
53271;SDS011;39160;48.580;7.756;2023-04-15T08:26:07;3.42;;;1.55;;
53271;SDS011;39160;48.580;7.756;2023-04-15T08:30:57;3.25;;;2.20;;
53271;SDS011;39160;48.580;7.756;2023-04-15T08:35:48;6.57;;;2.00;;
53271;SDS011;39160;48.580;7.756;2023-04-15T08:40:40;6.45;;;2.10;;
53271;SDS011;39160;48.580;7.756;2023-04-15T08:45:32;3.13;;;1.98;;
53271;SDS011;39160;48.580;7.756;2023-04-15T08:50:23;5.72;;;2.70;;
53271;SDS011;39160;48.580;7.756;2023-04-15T08:55:15;4.32;;;2.38;;
53271;SDS011;39160;48.580;7.756;2023-04-15T09:00:06;4.95;;;3.03;;
53271;SDS011;39160;48.580;7.756;2023-04-15T09:04:58;8.10;;;4.63;;
53271;SDS011;39160;48.580;7.756;2023-04-15T09:09:48;4.03;;;3.13;;
53271;SDS011;39160;48.580;7.756;2023-04-15T09:14:40;5.65;;;2.25;;
53271;SDS011;39160;48.580;7.756;2023-04-15T09:19:31;5.10;;;2.60;;
53271;SDS011;39160;48.580;7.756;2023-04-15T09:24:25;3.13;;;1.70;;
53271;SDS011;39160;48.580;7.756;2023-04-15T09:29:26;3.40;;;1.63;;
53271;SDS011;39160;48.580;7.756;2023-04-15T09:34:17;4.20;;;2.55;;
53271;SDS011;39160;48.580;7.756;2023-04-15T09:39:08;5.00;;;2.42;;
53271;SDS011;39160;48.580;7.756;2023-04-15T09:43:58;4.38;;;1.88;;
53271;SDS011;39160;48.580;7.756;2023-04-15T09:49:05;3.78;;;1.63;;
53271;SDS011;39160;48.580;7.756;2023-04-15T09:53:57;2.47;;;1.67;;
53271;SDS011;39160;48.580;7.756;2023-04-15T09:58:55;2.50;;;1.60;;
53271;SDS011;39160;48.580;7.756;2023-04-15T10:03:45;4.05;;;1.60;;
53271;SDS011;39160;48.580;7.756;2023-04-15T10:08:36;4.88;;;1.75;;
53271;SDS011;39160;48.580;7.756;2023-04-15T10:13:31;4.32;;;1.58;;
53271;SDS011;39160;48.580;7.756;2023-04-15T10:18:27;3.70;;;2.20;;
53271;SDS011;39160;48.580;7.756;2023-04-15T10:23:21;4.93;;;2.63;;
53271;SDS011;39160;48.580;7.756;2023-04-15T10:28:13;3.35;;;1.63;;
53271;SDS011;39160;48.580;7.756;2023-04-15T10:33:05;3.40;;;1.13;;
53271;SDS011;39160;48.580;7.756;2023-04-15T10:37:58;5.65;;;1.52;;
53271;SDS011;39160;48.580;7.756;2023-04-15T10:42:49;3.03;;;1.52;;
53271;SDS011;39160;48.580;7.756;2023-04-15T10:47:40;6.85;;;2.35;;
53271;SDS011;39160;48.580;7.756;2023-04-15T10:52:32;3.83;;;2.65;;
53271;SDS011;39160;48.580;7.756;2023-04-15T10:57:23;2.90;;;1.85;;
53271;SDS011;39160;48.580;7.756;2023-04-15T11:02:14;4.05;;;1.30;;
53271;SDS011;39160;48.580;7.756;2023-04-15T11:07:05;1.90;;;1.33;;
53271;SDS011;39160;48.580;7.756;2023-04-15T11:12:05;5.95;;;2.15;;
53271;SDS011;39160;48.580;7.756;2023-04-15T11:16:57;3.50;;;1.52;;
53271;SDS011;39160;48.580;7.756;2023-04-15T11:21:48;5.35;;;1.45;;
53271;SDS011;39160;48.580;7.756;2023-04-15T11:26:38;4.30;;;1.67;;
53271;SDS011;39160;48.580;7.756;2023-04-15T11:31:29;2.03;;;1.33;;
53271;SDS011;39160;48.580;7.756;2023-04-15T11:36:20;3.97;;;1.00;;
53271;SDS011;39160;48.580;7.756;2023-04-15T11:41:19;3.55;;;0.90;;
53271;SDS011;39160;48.580;7.756;2023-04-15T11:46:11;2.15;;;1.08;;
53271;SDS011;39160;48.580;7.756;2023-04-15T11:51:02;1.75;;;1.17;;
53271;SDS011;39160;48.580;7.756;2023-04-15T11:55:56;1.45;;;0.88;;
53271;SDS011;39160;48.580;7.756;2023-04-15T12:00:51;1.88;;;0.88;;
53271;SDS011;39160;48.580;7.756;2023-04-15T12:10:57;2.78;;;1.25;;
53271;SDS011;39160;48.580;7.756;2023-04-15T12:15:48;2.78;;;1.10;;
53271;SDS011;39160;48.580;7.756;2023-04-15T12:20:45;4.47;;;1.58;;
53271;SDS011;39160;48.580;7.756;2023-04-15T12:25:36;2.30;;;1.42;;
53271;SDS011;39160;48.580;7.756;2023-04-15T12:30:26;2.95;;;1.40;;
53271;SDS011;39160;48.580;7.756;2023-04-15T12:35:17;2.35;;;1.00;;
53271;SDS011;39160;48.580;7.756;2023-04-15T12:40:10;2.30;;;1.20;;
53271;SDS011;39160;48.580;7.756;2023-04-15T12:45:01;1.50;;;1.00;;
53271;SDS011;39160;48.580;7.756;2023-04-15T12:49:52;1.30;;;0.80;;
53271;SDS011;39160;48.580;7.756;2023-04-15T12:54:42;1.65;;;0.90;;
53271;SDS011;39160;48.580;7.756;2023-04-15T12:59:34;1.45;;;0.75;;
53271;SDS011;39160;48.580;7.756;2023-04-15T13:04:24;3.38;;;0.90;;
53271;SDS011;39160;48.580;7.756;2023-04-15T13:09:19;1.95;;;1.00;;
53271;SDS011;39160;48.580;7.756;2023-04-15T13:14:10;3.22;;;1.10;;
53271;SDS011;39160;48.580;7.756;2023-04-15T13:19:02;1.45;;;0.93;;
53271;SDS011;39160;48.580;7.756;2023-04-15T13:23:53;3.25;;;1.35;;
53271;SDS011;39160;48.580;7.756;2023-04-15T13:28:44;3.78;;;1.60;;
53271;SDS011;39160;48.580;7.756;2023-04-15T13:33:35;3.25;;;1.20;;
53271;SDS011;39160;48.580;7.756;2023-04-15T13:38:25;2.60;;;1.58;;
53271;SDS011;39160;48.580;7.756;2023-04-15T13:43:16;2.10;;;1.33;;
53271;SDS011;39160;48.580;7.756;2023-04-15T13:48:07;2.38;;;1.60;;
53271;SDS011;39160;48.580;7.756;2023-04-15T13:52:57;3.80;;;1.15;;
53271;SDS011;39160;48.580;7.756;2023-04-15T13:57:48;1.02;;;0.90;;
53271;SDS011;39160;48.580;7.756;2023-04-15T14:02:39;3.15;;;1.00;;
53271;SDS011;39160;48.580;7.756;2023-04-15T14:07:31;3.72;;;1.42;;
53271;SDS011;39160;48.580;7.756;2023-04-15T14:12:21;2.95;;;1.83;;
53271;SDS011;39160;48.580;7.756;2023-04-15T14:17:12;4.03;;;1.73;;
53271;SDS011;39160;48.580;7.756;2023-04-15T14:22:03;1.80;;;1.33;;
53271;SDS011;39160;48.580;7.756;2023-04-15T14:26:54;2.50;;;1.33;;
53271;SDS011;39160;48.580;7.756;2023-04-15T14:31:45;2.40;;;1.38;;
53271;SDS011;39160;48.580;7.756;2023-04-15T14:36:37;2.30;;;1.50;;
53271;SDS011;39160;48.580;7.756;2023-04-15T14:41:28;3.25;;;1.30;;
53271;SDS011;39160;48.580;7.756;2023-04-15T14:46:19;2.33;;;1.27;;
53271;SDS011;39160;48.580;7.756;2023-04-15T14:51:10;2.88;;;1.25;;
53271;SDS011;39160;48.580;7.756;2023-04-15T14:56:00;3.92;;;1.17;;
53271;SDS011;39160;48.580;7.756;2023-04-15T15:00:51;1.73;;;1.23;;
53271;SDS011;39160;48.580;7.756;2023-04-15T15:05:43;1.77;;;1.25;;
53271;SDS011;39160;48.580;7.756;2023-04-15T15:10:35;3.83;;;1.50;;
53271;SDS011;39160;48.580;7.756;2023-04-15T15:15:26;3.92;;;1.42;;
53271;SDS011;39160;48.580;7.756;2023-04-15T15:20:16;2.63;;;1.10;;
53271;SDS011;39160;48.580;7.756;2023-04-15T15:25:08;4.05;;;1.10;;
53271;SDS011;39160;48.580;7.756;2023-04-15T15:29:58;2.40;;;1.95;;
53271;SDS011;39160;48.580;7.756;2023-04-15T15:34:49;1.95;;;0.93;;
53271;SDS011;39160;48.580;7.756;2023-04-15T15:39:40;2.55;;;1.25;;
53271;SDS011;39160;48.580;7.756;2023-04-15T15:44:31;2.95;;;1.23;;
53271;SDS011;39160;48.580;7.756;2023-04-15T15:49:22;1.70;;;0.80;;
53271;SDS011;39160;48.580;7.756;2023-04-15T15:54:14;3.25;;;1.30;;
53271;SDS011;39160;48.580;7.756;2023-04-15T15:59:05;2.33;;;1.02;;
53271;SDS011;39160;48.580;7.756;2023-04-15T16:03:56;2.85;;;2.13;;
53271;SDS011;39160;48.580;7.756;2023-04-15T16:08:46;2.15;;;1.08;;
53271;SDS011;39160;48.580;7.756;2023-04-15T16:13:37;3.40;;;0.95;;
53271;SDS011;39160;48.580;7.756;2023-04-15T16:18:28;1.63;;;0.98;;
53271;SDS011;39160;48.580;7.756;2023-04-15T16:23:18;1.85;;;1.00;;
53271;SDS011;39160;48.580;7.756;2023-04-15T16:28:09;2.55;;;0.90;;
53271;SDS011;39160;48.580;7.756;2023-04-15T16:33:00;1.92;;;0.77;;
53271;SDS011;39160;48.580;7.756;2023-04-15T16:37:51;2.15;;;0.93;;
53271;SDS011;39160;48.580;7.756;2023-04-15T16:42:41;1.73;;;1.00;;
53271;SDS011;39160;48.580;7.756;2023-04-15T16:47:32;1.73;;;1.00;;
53271;SDS011;39160;48.580;7.756;2023-04-15T16:52:23;2.83;;;1.35;;
53271;SDS011;39160;48.580;7.756;2023-04-15T16:57:13;2.60;;;1.20;;
53271;SDS011;39160;48.580;7.756;2023-04-15T17:02:04;1.33;;;0.80;;
53271;SDS011;39160;48.580;7.756;2023-04-15T17:06:55;1.75;;;1.00;;
53271;SDS011;39160;48.580;7.756;2023-04-15T17:11:46;2.88;;;1.70;;
53271;SDS011;39160;48.580;7.756;2023-04-15T17:16:37;1.98;;;1.10;;
53271;SDS011;39160;48.580;7.756;2023-04-15T17:21:28;3.72;;;1.20;;
53271;SDS011;39160;48.580;7.756;2023-04-15T17:26:18;6.80;;;1.70;;
53271;SDS011;39160;48.580;7.756;2023-04-15T17:31:09;3.97;;;1.80;;
53271;SDS011;39160;48.580;7.756;2023-04-15T17:36:00;2.22;;;1.58;;
53271;SDS011;39160;48.580;7.756;2023-04-15T17:40:51;4.75;;;3.00;;
53271;SDS011;39160;48.580;7.756;2023-04-15T17:45:41;5.97;;;2.10;;
53271;SDS011;39160;48.580;7.756;2023-04-15T17:50:32;2.92;;;2.03;;
53271;SDS011;39160;48.580;7.756;2023-04-15T17:55:23;2.55;;;2.30;;
53271;SDS011;39160;48.580;7.756;2023-04-15T18:00:14;4.03;;;2.80;;
53271;SDS011;39160;48.580;7.756;2023-04-15T18:05:06;2.35;;;2.15;;
53271;SDS011;39160;48.580;7.756;2023-04-15T18:09:57;1.45;;;1.00;;
53271;SDS011;39160;48.580;7.756;2023-04-15T18:14:48;3.05;;;1.15;;
53271;SDS011;39160;48.580;7.756;2023-04-15T18:19:38;1.63;;;0.73;;
53271;SDS011;39160;48.580;7.756;2023-04-15T18:24:29;3.42;;;1.20;;
53271;SDS011;39160;48.580;7.756;2023-04-15T18:29:20;2.05;;;1.10;;
53271;SDS011;39160;48.580;7.756;2023-04-15T18:34:13;1.88;;;1.42;;
53271;SDS011;39160;48.580;7.756;2023-04-15T18:39:04;1.80;;;1.02;;
53271;SDS011;39160;48.580;7.756;2023-04-15T18:43:54;2.47;;;1.35;;
53271;SDS011;39160;48.580;7.756;2023-04-15T18:48:45;2.67;;;1.13;;
53271;SDS011;39160;48.580;7.756;2023-04-15T18:53:36;2.42;;;1.10;;
53271;SDS011;39160;48.580;7.756;2023-04-15T18:58:27;1.90;;;1.13;;
53271;SDS011;39160;48.580;7.756;2023-04-15T19:03:18;4.82;;;1.65;;
53271;SDS011;39160;48.580;7.756;2023-04-15T19:08:09;3.47;;;2.22;;
53271;SDS011;39160;48.580;7.756;2023-04-15T19:12:59;1.20;;;1.00;;
53271;SDS011;39160;48.580;7.756;2023-04-15T19:17:50;1.80;;;0.90;;
53271;SDS011;39160;48.580;7.756;2023-04-15T19:22:41;2.92;;;1.23;;
53271;SDS011;39160;48.580;7.756;2023-04-15T19:27:32;2.15;;;1.20;;
53271;SDS011;39160;48.580;7.756;2023-04-15T19:32:22;3.45;;;1.27;;
53271;SDS011;39160;48.580;7.756;2023-04-15T19:37:13;3.63;;;1.20;;
53271;SDS011;39160;48.580;7.756;2023-04-15T19:42:05;2.78;;;1.52;;
53271;SDS011;39160;48.580;7.756;2023-04-15T19:46:55;2.17;;;1.38;;
53271;SDS011;39160;48.580;7.756;2023-04-15T19:51:47;3.33;;;1.20;;
53271;SDS011;39160;48.580;7.756;2023-04-15T19:56:39;2.53;;;1.17;;
53271;SDS011;39160;48.580;7.756;2023-04-15T20:01:29;1.48;;;1.23;;
53271;SDS011;39160;48.580;7.756;2023-04-15T20:06:20;2.72;;;1.50;;
53271;SDS011;39160;48.580;7.756;2023-04-15T20:11:11;3.38;;;1.63;;
53271;SDS011;39160;48.580;7.756;2023-04-15T20:16:02;2.58;;;1.25;;
53271;SDS011;39160;48.580;7.756;2023-04-15T20:20:56;3.08;;;1.90;;
53271;SDS011;39160;48.580;7.756;2023-04-15T20:25:47;1.95;;;1.23;;
53271;SDS011;39160;48.580;7.756;2023-04-15T20:30:37;2.90;;;1.00;;
53271;SDS011;39160;48.580;7.756;2023-04-15T20:35:28;2.30;;;1.25;;
53271;SDS011;39160;48.580;7.756;2023-04-15T20:40:19;2.78;;;1.40;;
53271;SDS011;39160;48.580;7.756;2023-04-15T20:45:10;2.10;;;1.40;;
53271;SDS011;39160;48.580;7.756;2023-04-15T20:50:01;3.75;;;1.45;;
53271;SDS011;39160;48.580;7.756;2023-04-15T20:54:52;3.65;;;1.60;;
53271;SDS011;39160;48.580;7.756;2023-04-15T20:59:43;2.25;;;1.67;;
53271;SDS011;39160;48.580;7.756;2023-04-15T21:04:33;2.08;;;1.67;;
53271;SDS011;39160;48.580;7.756;2023-04-15T21:09:24;7.10;;;3.63;;
53271;SDS011;39160;48.580;7.756;2023-04-15T21:14:15;3.50;;;2.40;;
53271;SDS011;39160;48.580;7.756;2023-04-15T21:19:06;2.75;;;2.08;;
53271;SDS011;39160;48.580;7.756;2023-04-15T21:24:00;4.38;;;2.58;;
53271;SDS011;39160;48.580;7.756;2023-04-15T21:28:50;4.93;;;2.63;;
53271;SDS011;39160;48.580;7.756;2023-04-15T21:33:41;5.15;;;3.78;;
53271;SDS011;39160;48.580;7.756;2023-04-15T21:38:32;5.97;;;3.75;;
53271;SDS011;39160;48.580;7.756;2023-04-15T21:43:23;7.03;;;4.95;;
53271;SDS011;39160;48.580;7.756;2023-04-15T21:48:14;6.82;;;3.75;;
53271;SDS011;39160;48.580;7.756;2023-04-15T21:53:06;8.10;;;5.00;;
53271;SDS011;39160;48.580;7.756;2023-04-15T21:57:57;6.72;;;4.60;;
53271;SDS011;39160;48.580;7.756;2023-04-15T22:02:48;9.48;;;5.50;;
53271;SDS011;39160;48.580;7.756;2023-04-15T22:07:39;9.07;;;6.07;;
53271;SDS011;39160;48.580;7.756;2023-04-15T22:12:30;9.82;;;5.78;;
53271;SDS011;39160;48.580;7.756;2023-04-15T22:17:21;9.63;;;6.32;;
53271;SDS011;39160;48.580;7.756;2023-04-15T22:22:11;15.52;;;6.93;;
53271;SDS011;39160;48.580;7.756;2023-04-15T22:27:02;9.00;;;5.60;;
53271;SDS011;39160;48.580;7.756;2023-04-15T22:31:52;10.35;;;6.28;;
53271;SDS011;39160;48.580;7.756;2023-04-15T22:36:43;8.98;;;5.78;;
53271;SDS011;39160;48.580;7.756;2023-04-15T22:41:34;8.77;;;5.47;;
53271;SDS011;39160;48.580;7.756;2023-04-15T22:46:24;9.15;;;5.95;;
53271;SDS011;39160;48.580;7.756;2023-04-15T22:51:20;11.60;;;7.65;;
53271;SDS011;39160;48.580;7.756;2023-04-15T23:01:01;6.60;;;4.18;;
53271;SDS011;39160;48.580;7.756;2023-04-15T23:05:52;6.25;;;4.25;;
53271;SDS011;39160;48.580;7.756;2023-04-15T23:10:43;6.50;;;3.92;;
53271;SDS011;39160;48.580;7.756;2023-04-15T23:15:34;5.05;;;3.55;;
53271;SDS011;39160;48.580;7.756;2023-04-15T23:20:24;4.15;;;2.92;;
53271;SDS011;39160;48.580;7.756;2023-04-15T23:25:15;4.03;;;3.00;;
53271;SDS011;39160;48.580;7.756;2023-04-15T23:30:06;5.53;;;3.35;;
53271;SDS011;39160;48.580;7.756;2023-04-15T23:34:57;9.05;;;4.43;;
53271;SDS011;39160;48.580;7.756;2023-04-15T23:39:47;9.45;;;4.40;;
53271;SDS011;39160;48.580;7.756;2023-04-15T23:44:38;3.78;;;2.50;;
53271;SDS011;39160;48.580;7.756;2023-04-15T23:49:29;4.30;;;2.90;;
53271;SDS011;39160;48.580;7.756;2023-04-15T23:54:19;5.68;;;3.13;;
53271;SDS011;39160;48.580;7.756;2023-04-15T23:59:10;4.45;;;2.88;;
